ADDS METAR Data INFO
IDs: Format: Raw Decoded Include TAF

Data at: 0936 UTC 25 Jun 2018

KSYM 250915Z AUTO 00000KT 7SM -RA 21/20 A3007 RMK AO2
KSYM 250855Z AUTO 00000KT 10SM -RA FEW032 SCT037 BKN045 21/20 A3008 RMK AO2
KSYM 250835Z AUTO 00000KT 10SM RA 21/20 A3008 RMK AO2
KSYM 250815Z AUTO 00000KT 10SM -RA 21/20 A3008 RMK AO2
KSYM 250755Z AUTO 00000KT 10SM 21/20 A3007 RMK AO2
KSYM 250735Z AUTO 00000KT 10SM 21/20 A3007 RMK AO2
KSYM 250715Z AUTO 17004KT 8SM 21/20 A3006 RMK AO2
KSYM 250655Z AUTO 16005KT 7SM OVC040 21/20 A3006 RMK AO2
KSYM 250635Z AUTO 00000KT 10SM BKN040 OVC046 21/20 A3005 RMK AO2
KSYM 250615Z AUTO 00000KT 10SM OVC046 21/20 A3005 RMK AO2
KSYM 250555Z AUTO 00000KT 10SM OVC046 21/20 A3004 RMK AO2
KSYM 250535Z AUTO 16004KT 10SM SCT043 BKN120 21/19 A3004 RMK AO2
KSYM 250515Z AUTO 00000KT 10SM FEW045 BKN110 22/19 A3004 RMK AO2
KSYM 250455Z AUTO 00000KT 10SM SCT045 BKN110 22/19 A3004 RMK AO2
KSYM 250435Z AUTO 00000KT 9SM SCT120 22/19 A3004 RMK AO2
KSYM 250415Z AUTO 00000KT 9SM 22/19 A3003 RMK AO2
KSYM 250355Z AUTO 00000KT 10SM 22/19 A3003 RMK AO2
KSYM 250335Z AUTO 00000KT 10SM 22/19 A3003 RMK AO2
KSYM 250315Z AUTO 00000KT 10SM CLR 21/19 A3003 RMK AO2
KSYM 250255Z AUTO 00000KT 10SM 22/19 A3004 RMK AO2
KSYM 250235Z AUTO 19003KT 10SM 21/19 A3003 RMK AO2
KSYM 250215Z AUTO 00000KT 10SM 22/19 A3003 RMK AO2
KSYM 250155Z AUTO 00000KT 10SM 23/19 A3003 RMK AO2
KSYM 250135Z AUTO 00000KT 10SM 24/19 A3003 RMK AO2
KSYM 250115Z AUTO 00000KT 9SM CLR 24/19 A3002 RMK AO2
KSYM 250055Z AUTO 00000KT 10SM CLR 23/20 A3001 RMK AO2
KSYM 250035Z AUTO 00000KT 10SM CLR 24/20 A3000 RMK AO2
KSYM 250015Z AUTO 00000KT 10SM CLR 26/19 A3001 RMK AO2
KSYM 242355Z AUTO 30003KT 10SM CLR 26/19 A3001 RMK AO2
KSYM 242335Z AUTO 00000KT 10SM CLR 27/19 A3001 RMK AO2
KSYM 242315Z AUTO VRB04KT 10SM CLR 27/19 A3001 RMK AO2
KSYM 242255Z AUTO 00000KT 10SM CLR 27/20 A3001 RMK AO2
KSYM 242235Z AUTO 00000KT 10SM CLR 27/19 A3001 RMK AO2
KSYM 242215Z AUTO 28004G10KT 10SM CLR 27/18 A3000 RMK AO2
KSYM 242155Z AUTO VRB04KT 10SM CLR 28/18 A3000 RMK AO2
KSYM 242135Z AUTO VRB03KT 10SM FEW042 FEW049 SCT055 28/19 A3000 RMK AO2
KSYM 242115Z AUTO 30005G10KT 10SM FEW040 FEW046 28/19 A2999 RMK AO2
KSYM 242055Z AUTO 31007G12KT 10SM BKN040 28/19 A2999 RMK AO2
KSYM 242035Z AUTO 31008KT 10SM FEW041 29/19 A2999 RMK AO2
KSYM 242015Z AUTO 30010KT 10SM FEW042 29/19 A2999 RMK AO2
KSYM 241955Z AUTO VRB06G13KT 10SM FEW044 29/19 A2999 RMK AO2
KSYM 241935Z AUTO 29005KT 10SM FEW050 28/19 A3000 RMK AO2
KSYM 241915Z AUTO 27007KT 9SM CLR 29/20 A3000 RMK AO2
KSYM 241855Z AUTO 31008KT 10SM SCT036 28/20 A3000 RMK AO2
KSYM 241835Z AUTO 31008KT 10SM SCT037 SCT044 BKN050 27/19 A3000 RMK AO2
KSYM 241815Z AUTO 30006G13KT 10SM FEW033 SCT049 28/20 A3000 RMK AO2
KSYM 241755Z AUTO VRB06KT 10SM CLR 28/20 A3000 RMK AO2
KSYM 241735Z AUTO VRB04KT 10SM FEW049 27/20 A3000 RMK AO2
KSYM 241715Z AUTO VRB03KT 10SM FEW040 SCT049 BKN065 27/20 A3000 RMK AO2
KSYM 241655Z AUTO 30005KT 10SM FEW033 FEW043 SCT050 27/20 A3000 RMK AO2
KSYM 241635Z AUTO VRB05G10KT 10SM CLR 27/20 A3000 RMK AO2
KSYM 241615Z AUTO 24005KT 9SM FEW018 FEW024 SCT050 26/20 A3000 RMK AO2
KSYM 241555Z AUTO VRB04KT 9SM FEW018 SCT029 BKN050 26/21 A3000 RMK AO2
KSYM 241535Z AUTO VRB03KT 10SM BKN046 BKN050 25/21 A3000 RMK AO2
KSYM 241515Z AUTO 25004KT 10SM BKN047 25/20 A2999 RMK AO2
KSYM 241455Z AUTO VRB04KT 10SM BKN043 BKN050 24/20 A2998 RMK AO2
KSYM 241435Z AUTO 00000KT 9SM BKN041 OVC049 24/21 A2997 RMK AO2
KSYM 241415Z AUTO 00000KT 10SM FEW007 BKN042 24/21 A2997 RMK AO2
KSYM 241355Z AUTO 00000KT 10SM SCT006 SCT035 23/21 A2997 RMK AO2
KSYM 241335Z AUTO 00000KT 9SM FEW006 FEW035 SCT100 22/21 A2997 RMK AO2
KSYM 241315Z AUTO 00000KT 10SM FEW006 FEW012 SCT029 21/20 A2996 RMK AO2
KSYM 241255Z AUTO 00000KT 10SM RA SCT003 BKN009 OVC013 21/20 A2996 RMK AO2
KSYM 241235Z AUTO 35005KT 10SM OVC003 21/20 A2996 RMK AO2
KSYM 241215Z AUTO 36004KT 5SM BR SCT003 SCT080 21/20 A2994 RMK AO2
KSYM 241155Z AUTO 00000KT 6SM BR FEW003 SCT090 21/20 A2993 RMK AO2
KSYM 241135Z AUTO 00000KT 2 1/2SM BR BKN003 BKN007 OVC027 20/20 A2992 RMK AO2
KSYM 241115Z AUTO 00000KT 1/2SM +RA BKN003 BKN007 OVC012 20/20 A2994 RMK AO2
KSYM 241055Z AUTO 00000KT 5SM BR OVC012 21/20 A2993 RMK AO2
KSYM 241035Z AUTO 00000KT 3SM BR OVC013 20/19 A2992 RMK AO2
KSYM 241015Z AUTO 00000KT 2SM BR 20/19 A2992 RMK AO2 VIS 1 1/4V3
KSYM 240955Z AUTO 00000KT 5SM BR 20/19 A2991 RMK AO2
KSYM 240935Z AUTO 00000KT 10SM 20/20 A2991 RMK AO2
KSYM 240915Z AUTO 00000KT 8SM 20/19 A2990 RMK AO2
KSYM 240855Z AUTO 00000KT 3SM -RA 20/19 A2990 RMK AO2
KSYM 240835Z AUTO 00000KT 3SM BR 20/19 A2991 RMK AO2
KSYM 240815Z AUTO 00000KT 4SM BR SCT033 SCT041 OVC110 20/19 A2990 RMK AO2
KSYM 240755Z AUTO 00000KT 5SM BR 20/19 A2991 RMK AO2
KSYM 240735Z AUTO 00000KT 7SM 20/19 A2991 RMK AO2
KSYM 240715Z AUTO 00000KT 7SM SCT032 BKN042 OVC095 20/19 A2990 RMK AO2
KSYM 240655Z AUTO 00000KT 9SM BKN033 BKN042 OVC085 20/19 A2991 RMK AO2
KSYM 240635Z AUTO 00000KT 10SM SCT034 SCT047 BKN060 20/19 A2990 RMK AO2
KSYM 240615Z AUTO 00000KT 10SM SCT033 BKN038 OVC070 21/19 A2990 RMK AO2
KSYM 240555Z AUTO 00000KT 10SM SCT034 BKN040 OVC046 21/19 A2990 RMK AO2
KSYM 240535Z AUTO 00000KT 10SM 21/18 A2990 RMK AO2
KSYM 240515Z AUTO 00000KT 10SM 21/18 A2990 RMK AO2
KSYM 240455Z AUTO 00000KT 10SM 22/18 A2991 RMK AO2
KSYM 240435Z AUTO 21003KT 10SM 21/19 A2991 RMK AO2
KSYM 240415Z AUTO 21004KT 10SM 20/18 A2990 RMK AO2
KSYM 240355Z AUTO 20004KT 10SM 20/18 A2989 RMK AO2
KSYM 240335Z AUTO 19004KT 10SM 21/18 A2989 RMK AO2
KSYM 240315Z AUTO 00000KT 10SM SCT041 23/17 A2989 RMK AO2
KSYM 240255Z AUTO 00000KT 10SM 23/17 A2989 RMK AO2
KSYM 240235Z AUTO 00000KT 10SM 23/17 A2988 RMK AO2
KSYM 240215Z AUTO 00000KT 10SM BKN042 OVC048 24/17 A2988 RMK AO2
KSYM 240155Z AUTO 00000KT 10SM 24/18 A2987 RMK AO2
KSYM 240135Z AUTO 00000KT 10SM 23/18 A2987 RMK AO2
KSYM 240115Z AUTO 00000KT 10SM CLR 23/18 A2986 RMK AO2
KSYM 240055Z AUTO 32005KT 10SM CLR 24/18 A2986 RMK AO2
KSYM 240035Z AUTO 32004KT 10SM CLR 24/18 A2985 RMK AO2
KSYM 240015Z AUTO 31003KT 10SM FEW050 FEW070 25/19 A2985 RMK AO2
KSYM 232355Z AUTO 00000KT 10SM BKN045 BKN050 BKN070 26/19 A2985 RMK AO2
KSYM 232335Z AUTO 00000KT 10SM BKN047 OVC060 26/18 A2985 RMK AO2
KSYM 232315Z AUTO 28004KT 10SM BKN047 BKN055 BKN060 26/19 A2985 RMK AO2
KSYM 232255Z AUTO 29003KT 10SM FEW043 SCT048 BKN055 26/19 A2984 RMK AO2
KSYM 232235Z AUTO 28003KT 10SM BKN045 BKN055 BKN065 27/18 A2984 RMK AO2
KSYM 232215Z AUTO 24005KT 10SM SCT044 BKN050 27/18 A2984 RMK AO2
KSYM 232155Z AUTO 26005G12KT 10SM SCT043 SCT050 SCT070 27/18 A2984 RMK AO2